Ennadai, Canada
Current Conditions -  °F | °C
As of 4:34 PM on Tuesday 21 Oct 2014 (Local Time) from CYSF Reporting Station
Light Rain Light Rain  
Wind Chill: 42°   Ceiling: 9900
Heat Index: 45°   Visibility: 9mi
Dew Point: 41°   Wind: 5mph
Humidity: 87%   Direction: 60°ENE
Pressure: 29.49"   Gusts: NA
Location:  61.13°N, 100.88°W
Report Text: CYSF 212134Z AUTO 06004KT 360V100 9SM -RA FEW040 SCT074 BKN099 07/05 A2949 RMK PRESRR SLP998
Loading
Personal Weather Stations






























Interactive Weather Map
Tropical Storm Tracking
New forecast layout! Learn more

10-Day Weather Forecast

Advertisements
Track Severe Weather on mobile